Time;durP1;ratioP1;P1;durP2;ratioP2;P2;SDS_P1;SDS_P2;PMS_P1;PMS_P2;Temp;Humidity;BMP_temperature;BMP_pressure;BME280_temperature;BME280_humidity;BME280_pressure;Samples;Min_cycle;Max_cycle;Signal;HPM_P1;HPM_P2
2023/05/14 00:01:52;;;;;;;25.10;16.37;;;;;;;;;;5059780;28;20229;-59
2023/05/14 00:04:18;;;;;;;25.40;17.60;;;11.80;99.90;;;;;;5091470;28;20599;-60
2023/05/14 00:06:44;;;;;;;27.13;17.57;;;11.80;99.90;;;;;;5091367;28;20176;-59
2023/05/14 00:09:11;;;;;;;23.27;16.13;;;11.80;99.90;;;;;;5072245;28;20196;-60
2023/05/14 00:11:36;;;;;;;24.70;17.20;;;11.70;99.90;;;;;;5075508;28;20225;-59
2023/05/14 00:14:02;;;;;;;27.10;18.13;;;11.70;99.90;;;;;;5090643;28;20187;-59
2023/05/14 00:16:27;;;;;;;29.47;17.27;;;11.70;99.90;;;;;;5082602;28;20187;-60
2023/05/14 00:18:53;;;;;;;24.53;16.77;;;11.70;99.90;;;;;;5087086;28;20212;-59
2023/05/14 00:21:19;;;;;;;23.90;16.90;;;11.60;99.90;;;;;;5091042;28;20628;-60
2023/05/14 00:23:45;;;;;;;33.03;17.53;;;11.50;99.90;;;;;;5091145;28;20168;-60
2023/05/14 00:26:10;;;;;;;26.50;17.97;;;11.50;99.90;;;;;;5073045;28;20516;-60
2023/05/14 00:28:36;;;;;;;26.90;17.67;;;11.40;99.90;;;;;;5091173;28;20184;-60
2023/05/14 00:31:02;;;;;;;27.77;17.27;;;11.40;99.90;;;;;;5091068;28;20182;-60
2023/05/14 00:33:27;;;;;;;29.20;17.87;;;11.40;99.90;;;;;;5091032;28;20168;-59
2023/05/14 00:35:53;;;;;;;26.57;17.90;;;11.40;99.90;;;;;;5090923;28;20220;-60
2023/05/14 00:38:18;;;;;;;25.50;17.20;;;11.40;99.90;;;;;;5090899;28;20581;-60
2023/05/14 00:40:49;;;;;;;24.93;17.67;;;11.40;99.90;;;;;;5090953;28;20168;-60
2023/05/14 00:43:19;;;;;;;27.73;17.50;;;11.40;99.90;;;;;;5090711;28;20180;-60
2023/05/14 00:45:46;;;;;;;30.00;16.90;;;11.40;99.90;;;;;;5091128;28;20176;-60
2023/05/14 00:48:12;;;;;;;27.60;17.53;;;11.60;99.90;;;;;;5081936;28;20176;-60
2023/05/14 00:50:38;;;;;;;29.33;17.73;;;11.40;99.90;;;;;;5090597;28;20219;-60
2023/05/14 00:53:08;;;;;;;26.43;18.37;;;11.40;99.90;;;;;;5072822;28;20237;-60
2023/05/14 00:55:38;;;;;;;25.93;17.77;;;11.40;99.90;;;;;;5090866;28;20170;-59
2023/05/14 00:58:09;;;;;;;27.70;18.27;;;11.40;99.90;;;;;;5090849;28;20174;-62
2023/05/14 01:00:35;;;;;;;30.40;18.43;;;11.40;99.90;;;;;;5090691;28;20240;-59
2023/05/14 01:03:03;;;;;;;27.20;18.57;;;11.40;99.90;;;;;;5090781;28;20160;-59
2023/05/14 01:05:36;;;;;;;29.33;18.47;;;11.40;99.90;;;;;;5090609;28;20254;-58
2023/05/14 01:08:14;;;;;;;26.37;17.47;;;11.30;99.90;;;;;;5090792;28;20179;-59
2023/05/14 01:11:10;;;;;;;25.80;17.60;;;11.30;99.90;;;;;;5090317;28;20242;-60
2023/05/14 01:13:56;;;;;;;28.27;17.87;;;11.10;99.90;;;;;;5088823;28;20192;-59
2023/05/14 01:16:27;;;;;;;27.17;18.77;;;11.00;99.90;;;;;;5090937;28;20184;-59
2023/05/14 01:18:54;;;;;;;28.17;18.20;;;11.00;99.90;;;;;;5090698;28;20218;-59
2023/05/14 01:21:41;;;;;;;23.63;17.27;;;10.90;99.90;;;;;;5090635;28;20179;-59
2023/05/14 01:24:07;;;;;;;28.10;17.23;;;10.90;99.90;;;;;;5072373;28;20636;-59
2023/05/14 01:26:35;;;;;;;26.77;17.77;;;9.50;99.90;;;;;;5090480;28;20169;-59
2023/05/14 01:29:35;;;;;;;28.00;17.50;;;10.80;99.90;;;;;;5090597;28;20221;-60
2023/05/14 01:32:06;;;;;;;25.50;18.07;;;10.80;99.90;;;;;;5045525;28;20530;-59
2023/05/14 01:34:35;;;;;;;27.23;19.47;;;10.70;99.90;;;;;;5090357;28;20261;-60
2023/05/14 01:37:01;;;;;;;27.20;18.53;;;10.70;99.90;;;;;;5090696;28;20176;-59
2023/05/14 01:39:27;;;;;;;28.17;19.17;;;10.80;99.90;;;;;;5090698;28;20225;-61
2023/05/14 01:41:54;;;;;;;26.90;19.13;;;10.90;99.90;;;;;;5090638;28;20183;-59
2023/05/14 01:44:21;;;;;;;30.47;19.10;;;10.90;99.90;;;;;;5090482;28;20176;-60
2023/05/14 01:46:46;;;;;;;31.77;18.80;;;10.80;99.90;;;;;;5090348;28;20481;-59
2023/05/14 01:49:12;;;;;;;25.83;17.67;;;10.50;99.90;;;;;;5090014;28;20695;-60
2023/05/14 01:51:37;;;;;;;25.63;18.07;;;10.70;99.90;;;;;;5089408;28;20180;-60
2023/05/14 01:54:03;;;;;;;32.93;19.90;;;10.70;99.90;;;;;;5090462;28;20168;-61
2023/05/14 01:56:29;;;;;;;27.70;18.80;;;10.60;99.90;;;;;;5086838;28;20248;-60
2023/05/14 01:58:55;;;;;;;30.37;18.50;;;10.50;99.90;;;;;;5073765;28;20259;-59
2023/05/14 02:01:21;;;;;;;29.50;19.27;;;10.50;99.90;;;;;;5073596;28;20187;-59
2023/05/14 02:03:47;;;;;;;30.17;18.67;;;10.40;99.90;;;;;;5073518;28;20173;-58
2023/05/14 02:06:12;;;;;;;27.47;18.13;;;10.40;99.90;;;;;;5073720;28;20573;-59
2023/05/14 02:08:38;;;;;;;27.80;18.43;;;10.30;99.90;;;;;;5079845;28;20172;-59
2023/05/14 02:11:04;;;;;;;29.30;19.33;;;10.40;99.90;;;;;;5093746;28;20176;-58
2023/05/14 02:13:30;;;;;;;29.50;19.60;;;;;;;;;;5094084;28;20509;-59
2023/05/14 02:15:56;;;;;;;35.13;19.37;;;10.40;99.90;;;;;;5093660;28;20176;-59
2023/05/14 02:18:22;;;;;;;32.60;20.00;;;;;;;;;;5093528;28;20655;-59
2023/05/14 02:20:47;;;;;;;29.07;19.33;;;10.40;99.90;;;;;;5093452;28;20176;-59
2023/05/14 02:23:13;;;;;;;28.43;19.27;;;10.30;99.90;;;;;;5093390;28;20180;-59
2023/05/14 02:25:38;;;;;;;33.70;18.77;;;10.30;99.90;;;;;;5091783;28;20717;-59
2023/05/14 02:28:04;;;;;;;29.80;18.40;;;10.30;99.90;;;;;;5091786;28;20179;-59
2023/05/14 02:30:30;;;;;;;28.13;18.93;;;10.30;99.90;;;;;;5090207;28;20247;-59
2023/05/14 02:32:56;;;;;;;29.20;20.00;;;10.30;99.90;;;;;;5083478;28;20181;-60
2023/05/14 02:35:21;;;;;;;28.80;19.30;;;10.30;99.90;;;;;;5090865;28;20227;-59
2023/05/14 02:37:47;;;;;;;27.27;19.10;;;10.30;99.90;;;;;;5093203;28;20183;-59
2023/05/14 02:40:13;;;;;;;29.83;19.17;;;10.10;99.90;;;;;;5093129;28;20184;-59
2023/05/14 02:42:39;;;;;;;29.73;19.30;;;10.30;99.90;;;;;;5093146;28;20172;-59
2023/05/14 02:45:05;;;;;;;33.00;20.10;;;10.30;99.90;;;;;;5087095;28;20263;-59
2023/05/14 02:47:30;;;;;;;27.93;18.20;;;10.20;99.90;;;;;;5054728;28;20286;-59
2023/05/14 02:49:56;;;;;;;27.40;18.67;;;10.30;99.90;;;;;;5076766;28;20273;-59
2023/05/14 02:52:22;;;;;;;28.47;19.13;;;10.30;99.90;;;;;;5075045;28;20156;-59
2023/05/14 02:54:47;;;;;;;26.67;18.77;;;10.20;99.90;;;;;;5092880;28;20525;-59
2023/05/14 02:57:13;;;;;;;35.43;19.20;;;10.20;99.90;;;;;;5092799;28;20256;-59
2023/05/14 02:59:38;;;;;;;31.43;19.83;;;10.20;99.90;;;;;;5092676;28;20172;-60
2023/05/14 03:02:04;;;;;;;27.33;17.90;;;10.20;99.90;;;;;;5092688;28;20183;-59
2023/05/14 03:04:30;;;;;;;28.03;18.40;;;10.10;99.90;;;;;;5092606;28;20213;-59
2023/05/14 03:06:55;;;;;;;27.33;18.83;;;10.00;99.90;;;;;;5092274;28;20210;-58
2023/05/14 03:09:21;;;;;;;29.77;18.70;;;10.00;99.90;;;;;;5092393;28;20211;-58
2023/05/14 03:11:47;;;;;;;29.23;18.40;;;10.00;99.90;;;;;;5092532;28;20196;-60
2023/05/14 03:14:12;;;;;;;28.83;18.60;;;10.00;99.90;;;;;;5092454;28;20164;-58
2023/05/14 03:16:40;;;;;;;28.57;19.10;;;;;;;;;;5092288;28;20172;-59
2023/05/14 03:19:06;;;;;;;27.30;19.27;;;10.00;99.90;;;;;;5092425;28;20167;-59
2023/05/14 03:21:32;;;;;;;30.57;19.73;;;10.00;99.90;;;;;;5092381;28;20168;-59
2023/05/14 03:23:58;;;;;;;29.70;20.03;;;9.90;99.90;;;;;;5091068;28;20164;-59
2023/05/14 03:26:23;;;;;;;29.90;19.67;;;9.90;99.90;;;;;;5072067;28;20306;-59
2023/05/14 03:28:49;;;;;;;32.23;19.87;;;;;;;;;;5071817;28;20208;-57
2023/05/14 03:31:15;;;;;;;29.30;18.97;;;9.70;99.90;;;;;;5071784;28;20169;-59
2023/05/14 03:33:40;;;;;;;32.23;19.60;;;9.90;99.90;;;;;;5072021;28;20176;-59
2023/05/14 03:36:06;;;;;;;28.60;18.33;;;9.80;99.90;;;;;;5084965;28;20253;-59
2023/05/14 03:38:32;;;;;;;30.70;19.83;;;9.80;99.90;;;;;;5091816;28;20627;-59
2023/05/14 03:40:57;;;;;;;29.50;19.90;;;9.70;99.90;;;;;;5071680;28;20177;-59
2023/05/14 03:43:23;;;;;;;28.03;19.10;;;9.60;99.90;;;;;;5075391;28;20172;-59
2023/05/14 03:45:51;;;;;;;30.70;19.27;;;9.60;99.90;;;;;;5071808;28;20179;-59
2023/05/14 03:48:17;;;;;;;29.67;18.70;;;9.40;99.90;;;;;;5071985;28;20645;-59
2023/05/14 03:50:43;;;;;;;28.60;19.50;;;9.50;99.90;;;;;;5071474;28;20208;-59
2023/05/14 03:53:08;;;;;;;33.90;21.77;;;9.40;99.90;;;;;;5090060;28;20520;-59
2023/05/14 03:55:35;;;;;;;27.80;19.63;;;9.40;99.90;;;;;;5091500;28;20207;-59
2023/05/14 03:58:01;;;;;;;31.40;20.63;;;9.40;99.90;;;;;;5091606;28;20164;-59
2023/05/14 04:00:27;;;;;;;33.43;21.40;;;9.40;99.90;;;;;;5082550;28;20230;-59
2023/05/14 04:02:53;;;;;;;32.63;21.23;;;9.10;99.90;;;;;;5074358;28;20228;-59
2023/05/14 04:05:19;;;;;;;30.00;20.17;;;9.40;99.90;;;;;;5091656;28;20291;-59
2023/05/14 04:07:45;;;;;;;34.20;20.93;;;9.40;99.90;;;;;;5091464;28;20168;-59
2023/05/14 04:10:11;;;;;;;33.87;21.10;;;9.40;99.90;;;;;;5076529;28;20568;-59
2023/05/14 04:12:37;;;;;;;32.13;20.70;;;9.40;99.90;;;;;;5071655;28;20173;-59
2023/05/14 04:15:04;;;;;;;33.30;22.00;;;9.50;99.90;;;;;;5081107;28;20184;-60
2023/05/14 04:17:30;;;;;;;34.90;21.43;;;9.60;99.90;;;;;;5081703;28;20196;-61
2023/05/14 04:19:55;;;;;;;32.27;20.43;;;9.60;99.90;;;;;;5088361;28;20273;-60
2023/05/14 04:22:21;;;;;;;29.63;19.60;;;9.60;99.90;;;;;;5088090;28;20192;-60
2023/05/14 04:24:46;;;;;;;28.93;19.63;;;7.90;99.90;;;;;;5077916;28;20601;-61
2023/05/14 04:27:18;;;;;;;28.97;19.60;;;9.50;99.90;;;;;;5091202;28;20179;-61
2023/05/14 04:29:44;;;;;;;30.60;19.50;;;9.50;99.90;;;;;;5074032;28;20266;-60
2023/05/14 04:32:11;;;;;;;32.60;20.13;;;9.50;99.90;;;;;;5075111;28;20184;-59
2023/05/14 04:34:36;;;;;;;34.50;21.23;;;9.70;99.90;;;;;;5087347;28;20242;-60
2023/05/14 04:37:03;;;;;;;36.27;22.17;;;9.60;99.90;;;;;;5091034;28;20191;-59
2023/05/14 04:39:28;;;;;;;30.03;20.77;;;9.60;99.90;;;;;;5091183;28;20180;-59
2023/05/14 04:41:54;;;;;;;32.97;22.03;;;10.20;99.90;;;;;;5091109;28;20156;-59
2023/05/14 04:44:19;;;;;;;29.10;20.37;;;9.80;99.90;;;;;;5072954;28;20518;-59
2023/05/14 04:46:45;;;;;;;27.73;19.00;;;9.70;99.90;;;;;;5071194;28;20180;-61
2023/05/14 04:49:11;;;;;;;29.43;19.33;;;9.50;99.90;;;;;;5073583;28;20234;-61
2023/05/14 04:51:36;;;;;;;29.10;19.03;;;9.40;99.90;;;;;;5091101;28;20696;-61
2023/05/14 04:54:02;;;;;;;27.93;18.17;;;9.30;99.90;;;;;;5090981;28;20183;-61
2023/05/14 04:56:28;;;;;;;30.30;19.03;;;9.40;99.90;;;;;;5090876;28;20671;-60
2023/05/14 04:58:53;;;;;;;32.07;20.63;;;9.30;99.90;;;;;;5091379;28;20204;-60
2023/05/14 05:01:19;;;;;;;30.20;20.17;;;9.40;99.90;;;;;;5090904;28;20210;-60
2023/05/14 05:03:45;;;;;;;26.70;18.63;;;9.50;99.90;;;;;;5090977;28;20179;-61
2023/05/14 05:06:10;;;;;;;28.80;19.80;;;9.50;99.90;;;;;;5090753;28;20175;-60
2023/05/14 05:08:36;;;;;;;27.93;18.07;;;9.40;99.90;;;;;;5090836;28;20586;-60
2023/05/14 05:11:02;;;;;;;27.07;18.17;;;9.50;99.90;;;;;;5090735;28;20215;-61
2023/05/14 05:13:28;;;;;;;25.27;18.40;;;;;;;;;;5090613;28;20176;-60
2023/05/14 05:15:53;;;;;;;33.90;20.33;;;9.70;99.90;;;;;;5090640;28;20183;-60
2023/05/14 05:18:19;;;;;;;29.67;20.20;;;8.00;99.90;;;;;;5090816;28;20168;-59
2023/05/14 05:20:45;;;;;;;28.43;19.07;;;9.70;99.90;;;;;;5090699;28;20222;-60
2023/05/14 05:23:10;;;;;;;29.83;19.83;;;9.80;99.90;;;;;;5090651;28;20172;-60
2023/05/14 05:25:36;;;;;;;32.97;19.80;;;9.80;99.90;;;;;;5072352;28;20536;-59
2023/05/14 05:28:01;;;;;;;28.43;19.07;;;9.80;99.90;;;;;;5090626;28;20230;-59
2023/05/14 05:30:29;;;;;;;29.27;18.90;;;10.00;99.90;;;;;;5094021;28;20742;-60
2023/05/14 05:32:55;;;;;;;29.57;19.60;;;9.80;99.90;;;;;;5094511;28;20186;-59
2023/05/14 05:35:21;;;;;;;29.53;20.30;;;9.90;99.90;;;;;;5094236;28;20262;-59
2023/05/14 05:37:47;;;;;;;32.03;19.63;;;9.90;99.90;;;;;;5094657;28;20175;-60
2023/05/14 05:40:13;;;;;;;31.20;20.27;;;9.90;99.90;;;;;;5094380;28;20171;-60
2023/05/14 05:42:39;;;;;;;33.60;19.97;;;9.90;99.90;;;;;;5094516;28;20178;-59
2023/05/14 05:45:05;;;;;;;28.17;19.10;;;9.90;99.90;;;;;;5075783;28;20168;-60
2023/05/14 05:47:31;;;;;;;32.20;20.03;;;10.00;99.90;;;;;;5093505;28;20659;-60
2023/05/14 05:49:56;;;;;;;34.53;19.70;;;10.10;99.90;;;;;;5083642;28;20216;-60
2023/05/14 05:52:22;;;;;;;31.67;20.57;;;10.50;99.90;;;;;;5074223;28;20261;-59
2023/05/14 05:54:48;;;;;;;34.20;20.00;;;10.30;99.90;;;;;;5082937;28;20604;-59
2023/05/14 05:57:13;;;;;;;31.20;19.97;;;10.40;99.90;;;;;;5094124;28;20168;-60
2023/05/14 05:59:39;;;;;;;28.70;19.67;;;10.50;99.90;;;;;;5092318;28;20263;-59
2023/05/14 06:02:05;;;;;;;29.87;20.00;;;10.40;99.90;;;;;;5094122;28;20624;-58
2023/05/14 06:04:30;;;;;;;30.03;18.63;;;10.50;99.90;;;;;;5078497;28;20173;-58
2023/05/14 06:06:57;;;;;;;29.83;19.73;;;;;;;;;;5081076;28;20218;-58
2023/05/14 06:09:22;;;;;;;30.97;19.17;;;10.80;99.90;;;;;;5093670;28;20195;-58
2023/05/14 06:11:48;;;;;;;28.67;19.97;;;10.70;99.90;;;;;;5093542;28;20279;-59
2023/05/14 06:14:13;;;;;;;29.43;19.53;;;10.80;99.90;;;;;;5093709;28;20174;-59
2023/05/14 06:16:39;;;;;;;29.70;20.20;;;10.80;99.90;;;;;;5093632;28;20199;-59
2023/05/14 06:19:05;;;;;;;30.47;19.63;;;10.90;99.90;;;;;;5093835;28;20564;-58
2023/05/14 06:21:31;;;;;;;26.43;19.07;;;10.90;99.90;;;;;;5093611;28;20667;-58
2023/05/14 06:23:56;;;;;;;28.87;18.27;;;10.90;99.90;;;;;;5093389;28;20193;-59
2023/05/14 06:26:22;;;;;;;31.73;20.73;;;11.00;99.90;;;;;;5093464;28;20648;-58
2023/05/14 06:28:48;;;;;;;33.57;21.17;;;11.10;99.90;;;;;;5093283;28;20218;-59
2023/05/14 06:31:13;;;;;;;26.77;19.87;;;11.20;99.90;;;;;;5093313;28;20204;-60
2023/05/14 06:33:39;;;;;;;28.60;20.07;;;11.30;99.90;;;;;;5093293;28;20179;-60
2023/05/14 06:36:06;;;;;;;27.93;19.17;;;11.60;99.90;;;;;;5093146;28;20223;-60
2023/05/14 06:38:32;;;;;;;28.50;19.63;;;11.70;99.90;;;;;;5093270;28;20171;-58
2023/05/14 06:40:57;;;;;;;25.00;18.37;;;11.80;99.90;;;;;;5092496;28;20167;-57
2023/05/14 06:43:23;;;;;;;30.77;19.87;;;11.70;99.90;;;;;;5093108;28;20678;-58
2023/05/14 06:45:52;;;;;;;30.00;19.10;;;11.80;99.90;;;;;;5093122;28;20266;-58
2023/05/14 06:48:18;;;;;;;30.13;20.40;;;12.00;99.90;;;;;;5093045;28;20262;-59
2023/05/14 06:50:45;;;;;;;28.17;19.77;;;12.00;99.90;;;;;;5092720;28;20274;-58
2023/05/14 06:53:12;;;;;;;26.30;18.47;;;12.20;99.90;;;;;;5085891;28;20207;-58
2023/05/14 06:55:37;;;;;;;28.08;19.90;;;12.30;99.90;;;;;;5080018;28;20713;-58
2023/05/14 06:58:06;;;;;;;27.60;19.77;;;12.50;99.90;;;;;;5092900;28;20311;-64
2023/05/14 07:00:31;;;;;;;30.17;21.13;;;12.70;99.90;;;;;;5090100;28;20172;-63
2023/05/14 07:02:57;;;;;;;28.55;20.35;;;12.60;99.90;;;;;;5070973;28;20179;-64
2023/05/14 07:05:23;;;;;;;31.77;22.20;;;12.80;99.90;;;;;;5092459;28;20180;-62
2023/05/14 07:07:49;;;;;;;30.90;21.38;;;12.70;99.90;;;;;;5092539;28;20648;-65
2023/05/14 07:10:15;;;;;;;31.83;21.45;;;13.00;99.90;;;;;;5092526;28;20218;-65
2023/05/14 07:12:40;;;;;;;34.00;21.50;;;13.00;99.90;;;;;;5087234;28;20180;-65
2023/05/14 07:15:06;;;;;;;40.95;25.67;;;13.00;99.90;;;;;;5085532;28;20180;-65
2023/05/14 07:17:32;;;;;;;37.05;23.35;;;13.10;99.90;;;;;;5072276;28;20176;-65
2023/05/14 07:19:58;;;;;;;32.03;22.20;;;12.90;99.90;;;;;;5072098;28;20521;-65
2023/05/14 07:22:23;;;;;;;38.45;24.27;;;13.00;99.90;;;;;;5071966;28;20525;-64
2023/05/14 07:24:49;;;;;;;38.28;24.27;;;13.00;99.90;;;;;;5072012;28;20584;-64
2023/05/14 07:27:16;;;;;;;40.65;25.63;;;13.00;99.90;;;;;;5083746;28;20213;-66
2023/05/14 07:29:41;;;;;;;38.53;24.00;;;12.90;99.90;;;;;;5073952;28;20203;-66
2023/05/14 07:32:07;;;;;;;39.60;24.20;;;13.00;99.90;;;;;;5090593;28;20259;-64
2023/05/14 07:34:33;;;;;;;35.47;23.10;;;12.90;99.90;;;;;;5073753;28;20646;-62
2023/05/14 07:36:58;;;;;;;38.65;24.35;;;12.90;99.90;;;;;;5091267;28;20241;-62
2023/05/14 07:39:24;;;;;;;34.78;23.05;;;12.80;99.90;;;;;;5092230;28;20541;-62
2023/05/14 07:41:50;;;;;;;36.50;23.00;;;12.80;99.90;;;;;;5091922;28;20639;-61
2023/05/14 07:44:15;;;;;;;37.10;22.38;;;12.90;99.90;;;;;;5079744;28;20259;-61
2023/05/14 07:46:41;;;;;;;39.30;23.85;;;12.80;99.90;;;;;;5091820;28;20648;-62
2023/05/14 07:49:07;;;;;;;36.65;23.10;;;12.90;99.90;;;;;;5091651;28;20204;-61
2023/05/14 07:51:33;;;;;;;38.30;24.20;;;13.00;99.90;;;;;;5091604;28;20293;-62
2023/05/14 07:53:58;;;;;;;38.58;24.27;;;13.10;99.90;;;;;;5091044;28;20660;-62
2023/05/14 07:56:24;;;;;;;42.15;24.95;;;13.10;99.90;;;;;;5090613;28;20175;-62
2023/05/14 07:58:50;;;;;;;41.40;25.08;;;12.90;99.90;;;;;;5091702;28;20164;-62
2023/05/14 08:01:16;;;;;;;40.00;25.30;;;13.00;99.90;;;;;;5090995;28;20171;-62
2023/05/14 08:03:42;;;;;;;43.15;26.45;;;12.90;99.90;;;;;;5091523;28;20175;-62
2023/05/14 08:06:08;;;;;;;43.40;26.03;;;13.00;99.90;;;;;;5091278;28;20671;-63
2023/05/14 08:08:33;;;;;;;47.42;28.45;;;12.90;99.90;;;;;;5091103;28;20312;-61
2023/05/14 08:10:59;;;;;;;48.67;28.50;;;13.00;99.90;;;;;;5091357;28;20649;-61
2023/05/14 08:13:25;;;;;;;49.22;27.75;;;13.30;99.90;;;;;;5090606;28;20164;-61
2023/05/14 08:15:51;;;;;;;44.80;27.00;;;13.20;99.90;;;;;;5074715;28;20264;-61
2023/05/14 08:18:16;;;;;;;44.20;27.85;;;13.30;99.90;;;;;;5090608;28;20667;-61
2023/05/14 08:20:42;;;;;;;43.17;27.30;;;13.40;99.90;;;;;;5090999;28;20179;-61
2023/05/14 08:23:08;;;;;;;47.35;28.35;;;13.50;99.90;;;;;;5091094;28;20184;-61
2023/05/14 08:25:34;;;;;;;43.65;28.52;;;13.60;99.90;;;;;;5091277;28;20791;-60
2023/05/14 08:28:00;;;;;;;39.92;23.40;;;13.50;99.90;;;;;;5090595;28;20681;-60
2023/05/14 08:30:26;;;;;;;47.25;26.60;;;13.30;99.90;;;;;;5091006;28;20298;-60
2023/05/14 08:32:52;;;;;;;41.72;24.25;;;12.70;99.90;;;;;;5091214;28;20199;-59
2023/05/14 08:35:18;;;;;;;39.70;25.10;;;13.30;99.90;;;;;;5090967;28;20215;-60
2023/05/14 08:37:43;;;;;;;42.08;26.15;;;13.50;99.90;;;;;;5091006;28;20361;-60
2023/05/14 08:40:10;;;;;;;42.47;25.98;;;13.80;99.90;;;;;;5090036;28;20222;-60
2023/05/14 08:42:39;;;;;;;42.25;24.58;;;14.00;99.90;;;;;;5082587;28;20671;-64
2023/05/14 08:45:11;;;;;;;40.20;25.92;;;14.10;99.90;;;;;;5079316;28;20218;-59
2023/05/14 08:47:37;;;;;;;38.17;24.30;;;13.80;99.90;;;;;;5090983;28;20175;-62
2023/05/14 08:50:04;;;;;;;38.25;24.60;;;13.90;99.90;;;;;;5084453;28;20212;-66
2023/05/14 08:52:30;;;;;;;39.90;24.70;;;;;;;;;;5087090;28;20176;-63
2023/05/14 08:54:59;;;;;;;34.20;22.27;;;13.90;99.90;;;;;;5076920;28;20183;-64
2023/05/14 08:57:25;;;;;;;40.88;21.38;;;13.80;99.90;;;;;;5085291;28;20191;-63
2023/05/14 08:59:53;;;;;;;31.77;21.60;;;14.10;99.90;;;;;;5090711;28;20658;-64
2023/05/14 09:02:26;;;;;;;30.92;19.73;;;14.20;99.90;;;;;;5084772;28;20184;-64
2023/05/14 09:04:57;;;;;;;31.02;20.95;;;14.00;99.90;;;;;;5089710;28;20187;-63
2023/05/14 09:07:23;;;;;;;30.40;19.60;;;13.90;99.90;;;;;;5091198;28;20199;-63
2023/05/14 09:09:51;;;;;;;31.75;18.67;;;14.10;99.90;;;;;;5094834;28;20208;-63
2023/05/14 09:12:16;;;;;;;31.05;19.40;;;14.10;99.90;;;;;;5094579;28;20659;-64
2023/05/14 09:14:43;;;;;;;30.20;19.60;;;14.30;99.90;;;;;;5076393;28;20168;-64
2023/05/14 09:17:11;;;;;;;29.15;19.65;;;14.50;99.90;;;;;;5085578;28;20192;-64
2023/05/14 09:19:39;;;;;;;28.30;17.85;;;14.60;99.90;;;;;;5080937;28;20180;-63
2023/05/14 09:22:08;;;;;;;29.48;18.85;;;14.50;99.90;;;;;;5086101;28;20184;-64
2023/05/14 09:24:33;;;;;;;30.05;17.75;;;14.80;99.90;;;;;;5079210;28;20164;-63
2023/05/14 09:27:00;;;;;;;26.67;18.10;;;14.70;99.90;;;;;;5092726;28;20724;-64
2023/05/14 09:29:29;;;;;;;28.67;18.58;;;15.20;99.90;;;;;;5090020;28;20196;-63
2023/05/14 09:31:56;;;;;;;23.73;16.83;;;15.00;99.90;;;;;;5075939;28;20168;-63
2023/05/14 09:34:27;;;;;;;25.95;17.40;;;15.40;99.90;;;;;;5088368;28;20666;-63
2023/05/14 09:36:57;;;;;;;24.77;16.77;;;15.80;99.90;;;;;;5086628;28;20210;-63
2023/05/14 09:39:25;;;;;;;22.48;16.38;;;15.90;99.90;;;;;;5073906;28;20637;-63
2023/05/14 09:41:51;;;;;;;23.08;15.35;;;16.20;99.90;;;;;;5073905;28;20268;-63
2023/05/14 09:44:17;;;;;;;24.77;15.32;;;16.40;99.90;;;;;;5074212;28;20259;-63
2023/05/14 09:46:44;;;;;;;19.92;13.75;;;16.40;99.90;;;;;;5093120;28;20197;-63
2023/05/14 09:49:10;;;;;;;21.02;15.38;;;15.90;99.90;;;;;;5091640;28;20204;-63
2023/05/14 09:51:37;;;;;;;21.00;15.02;;;16.00;99.90;;;;;;5092489;28;20515;-64
2023/05/14 09:54:04;;;;;;;19.50;13.60;;;16.60;99.90;;;;;;5093722;28;20217;-64
2023/05/14 09:56:30;;;;;;;17.75;13.13;;;16.60;99.90;;;;;;5093813;28;20624;-64
2023/05/14 09:58:56;;;;;;;18.05;12.80;;;16.70;99.90;;;;;;5093786;28;20180;-66
2023/05/14 10:01:23;;;;;;;15.85;12.88;;;16.70;99.90;;;;;;5093966;28;20588;-66
2023/05/14 10:03:50;;;;;;;16.75;12.98;;;17.40;99.90;;;;;;5093896;28;20213;-64
2023/05/14 10:06:18;;;;;;;17.20;12.13;;;17.50;99.90;;;;;;5093779;28;20178;-64
2023/05/14 10:08:45;;;;;;;16.30;12.68;;;17.40;99.90;;;;;;5093458;28;20212;-63
2023/05/14 10:11:19;;;;;;;16.08;11.70;;;17.60;99.90;;;;;;5093487;28;20246;-63
2023/05/14 10:13:52;;;;;;;17.35;12.75;;;17.20;99.90;;;;;;5093395;28;20589;-64
2023/05/14 10:16:20;;;;;;;15.85;12.88;;;17.60;99.90;;;;;;5092465;28;20195;-62
2023/05/14 10:18:51;;;;;;;16.48;12.40;;;17.90;99.90;;;;;;5093494;28;20226;-64
2023/05/14 10:21:19;;;;;;;18.90;12.63;;;18.60;99.90;;;;;;5093510;28;20251;-64
2023/05/14 10:23:47;;;;;;;15.98;12.20;;;18.60;99.90;;;;;;5093453;28;20172;-64
2023/05/14 10:26:13;;;;;;;16.73;13.55;;;18.50;99.90;;;;;;5093348;28;20172;-63
2023/05/14 10:28:39;;;;;;;17.17;12.18;;;18.60;99.90;;;;;;5093124;28;20175;-63
2023/05/14 10:31:04;;;;;;;17.80;12.15;;;18.70;99.90;;;;;;5093121;28;20301;-64
2023/05/14 10:33:46;;;;;;;13.68;11.18;;;18.40;99.90;;;;;;5093357;28;20167;-65
2023/05/14 10:36:12;;;;;;;14.40;10.80;;;18.90;99.90;;;;;;5075015;28;20611;-64
2023/05/14 10:38:37;;;;;;;11.63;8.85;;;19.00;99.90;;;;;;5078088;28;20652;-64
2023/05/14 10:41:10;;;;;;;9.55;8.05;;;19.30;99.90;;;;;;5072853;28;20179;-63
2023/05/14 10:43:37;;;;;;;11.27;7.18;;;18.80;99.90;;;;;;5063255;28;20172;-64
2023/05/14 10:46:03;;;;;;;8.23;6.80;;;18.30;99.90;;;;;;5079656;28;20541;-64
2023/05/14 10:48:30;;;;;;;8.63;6.93;;;17.80;99.90;;;;;;5089971;28;20184;-64
2023/05/14 10:50:57;;;;;;;9.23;6.07;;;17.90;99.90;;;;;;5072209;28;20219;-63
2023/05/14 10:53:33;;;;;;;8.15;6.22;;;17.70;99.90;;;;;;5072706;28;20173;-64
2023/05/14 10:56:07;;;;;;;9.63;6.07;;;17.90;99.90;;;;;;5077296;28;20226;-64
2023/05/14 10:58:41;;;;;;;9.15;6.78;;;17.80;99.90;;;;;;5092820;28;20180;-64
2023/05/14 11:01:09;;;;;;;6.85;5.53;;;17.50;99.90;;;;;;5092516;28;20172;-64
2023/05/14 11:03:40;;;;;;;7.78;6.03;;;17.20;99.90;;;;;;5074524;28;20589;-64
2023/05/14 11:06:07;;;;;;;7.00;6.03;;;17.30;99.90;;;;;;5092778;28;20194;-64
2023/05/14 11:08:32;;;;;;;7.15;6.10;;;17.30;99.90;;;;;;5088883;28;20172;-64
2023/05/14 11:10:59;;;;;;;8.85;5.93;;;17.60;99.90;;;;;;5078122;28;20227;-64
2023/05/14 11:13:25;;;;;;;8.32;4.55;;;17.60;99.90;;;;;;5092522;28;20179;-64
2023/05/14 11:15:51;;;;;;;13.48;5.15;;;18.00;89.60;;;;;;5092388;28;20253;-62
2023/05/14 11:18:32;;;;;;;5.47;3.42;;;18.30;1.00;;;;;;5092006;28;20219;-62
2023/05/14 11:21:01;;;;;;;6.82;3.15;;;18.40;32.60;;;;;;5086932;28;20169;-63
2023/05/14 11:23:27;;;;;;;4.72;2.85;;;18.30;1.00;;;;;;5080178;28;20168;-63
2023/05/14 11:25:55;;;;;;;5.20;3.28;;;17.90;1.00;;;;;;5092451;28;20168;-64
2023/05/14 11:28:25;;;;;;;2.90;2.60;;;18.00;1.00;;;;;;5086886;28;20191;-64
2023/05/14 11:30:51;;;;;;;4.88;3.30;;;18.00;99.90;;;;;;5085218;28;20337;-63
2023/05/14 11:33:17;;;;;;;4.45;2.90;;;18.00;1.00;;;;;;5085173;28;20184;-64
2023/05/14 11:35:44;;;;;;;3.75;3.15;;;18.40;1.00;;;;;;5073940;28;20224;-64
2023/05/14 11:38:17;;;;;;;3.70;2.47;;;18.90;1.00;;;;;;5092045;28;20171;-64
2023/05/14 11:40:53;;;;;;;4.45;2.92;;;19.20;1.00;;;;;;5091952;28;20219;-62
2023/05/14 11:43:19;;;;;;;3.63;2.50;;;19.30;1.00;;;;;;5092215;28;20178;-62
2023/05/14 11:45:50;;;;;;;7.45;2.85;;;19.10;99.90;;;;;;5062447;28;20271;-62
2023/05/14 11:48:15;;;;;;;4.45;2.80;;;19.10;99.90;;;;;;5071671;28;20183;-63
2023/05/14 11:50:46;;;;;;;7.22;4.07;;;19.40;99.90;;;;;;5071591;28;20208;-63
2023/05/14 11:53:16;;;;;;;7.07;4.60;;;19.40;99.90;;;;;;5071493;28;20168;-61
2023/05/14 11:55:42;;;;;;;6.80;4.63;;;18.90;1.00;;;;;;5071464;28;20242;-62
2023/05/14 11:58:08;;;;;;;8.32;5.00;;;19.20;14.50;;;;;;5074201;28;20173;-62
2023/05/14 12:00:33;;;;;;;7.30;5.70;;;20.20;1.00;;;;;;5091786;28;20188;-63
2023/05/14 12:02:59;;;;;;;10.93;6.93;;;19.70;99.90;;;;;;5091594;28;20164;-61
2023/05/14 12:05:25;;;;;;;9.85;7.15;;;19.50;99.90;;;;;;5091617;28;20643;-62
2023/05/14 12:07:50;;;;;;;12.68;7.63;;;19.60;1.00;;;;;;5091413;28;20262;-63
2023/05/14 12:10:16;;;;;;;8.90;7.22;;;20.60;99.90;;;;;;5089040;28;20208;-64
2023/05/14 12:12:46;;;;;;;9.43;6.97;;;20.80;99.90;;;;;;5091588;28;20525;-63
2023/05/14 12:15:14;;;;;;;9.32;6.75;;;21.90;1.00;;;;;;5083458;28;20188;-63
2023/05/14 12:17:40;;;;;;;8.45;6.13;;;21.90;1.00;;;;;;5071285;28;20755;-63
2023/05/14 12:20:09;;;;;;;6.25;5.20;;;22.00;99.90;;;;;;5071147;28;20255;-62
2023/05/14 12:22:35;;;;;;;6.05;4.72;;;21.70;99.90;;;;;;5072365;28;20181;-63
2023/05/14 12:25:01;;;;;;;5.60;4.80;;;21.00;47.50;;;;;;5091461;28;20663;-64
2023/05/14 12:27:28;;;;;;;6.68;4.85;;;22.00;1.00;;;;;;5089380;28;20199;-64
2023/05/14 12:30:05;;;;;;;7.88;5.40;;;22.10;1.00;;;;;;5091006;28;20265;-64
2023/05/14 12:32:34;;;;;;;6.18;5.25;;;22.30;99.90;;;;;;5089946;28;20199;-64
2023/05/14 12:35:00;;;;;;;7.30;5.18;;;22.40;1.00;;;;;;5074609;28;20234;-64